createdAt,value
2019-04-11T00:01:53.461Z,98592.47
2019-04-11T00:04:01.889Z,98589.81
2019-04-11T00:06:11.804Z,98592.66
2019-04-11T00:08:19.836Z,98596.88
2019-04-11T00:10:29.147Z,98597.80
2019-04-11T00:12:38.904Z,98596.53
2019-04-11T00:14:46.997Z,98596.48
2019-04-11T00:16:55.411Z,98594.08
2019-04-11T00:19:03.513Z,98596.30
2019-04-11T00:21:11.353Z,98586.03
2019-04-11T00:23:19.058Z,98591.16
2019-04-11T00:25:27.790Z,98582.85
2019-04-11T00:27:35.608Z,98588.63
2019-04-11T00:29:43.483Z,98592.88
2019-04-11T00:31:51.258Z,98595.30
2019-04-11T00:33:59.134Z,98592.66
2019-04-11T00:36:08.483Z,98592.14
2019-04-11T00:38:16.245Z,98599.13
2019-04-11T00:40:24.879Z,98601.27
2019-04-11T00:42:32.845Z,98599.66
2019-04-11T00:44:41.182Z,98600.57
2019-04-11T00:46:48.973Z,98589.36
2019-04-11T00:48:57.699Z,98594.38
2019-04-11T00:51:07.691Z,98586.91
2019-04-11T00:53:16.014Z,98587.27
2019-04-11T00:55:24.748Z,98589.51
2019-04-11T00:57:33.491Z,98585.56
2019-04-11T00:59:42.405Z,98593.02
2019-04-11T01:01:51.573Z,98591.58
2019-04-11T01:03:59.332Z,98594.00
2019-04-11T01:06:08.315Z,98587.58
2019-04-11T01:08:16.134Z,98581.05
2019-04-11T01:10:24.538Z,98589.55
2019-04-11T01:12:34.398Z,98581.73
2019-04-11T01:14:42.725Z,98600.64
2019-04-11T01:16:52.682Z,98587.55
2019-04-11T01:19:00.623Z,98585.48
2019-04-11T01:21:10.250Z,98588.42
2019-04-11T01:23:18.566Z,98594.71
2019-04-11T01:25:26.332Z,98588.08
2019-04-11T01:27:36.149Z,98603.77
2019-04-11T01:29:44.089Z,98594.22
2019-04-11T01:31:54.753Z,98594.92
2019-04-11T01:34:04.442Z,98586.70
2019-04-11T01:36:13.695Z,98600.73
2019-04-11T01:38:23.689Z,98602.00
2019-04-11T01:40:31.903Z,98598.97
2019-04-11T01:42:39.859Z,98605.80
2019-04-11T01:44:47.775Z,98599.47
2019-04-11T01:46:56.284Z,98598.97
2019-04-11T01:49:12.242Z,98611.70
2019-04-11T01:51:21.189Z,98605.56
2019-04-11T01:53:29.196Z,98605.66
2019-04-11T01:55:36.968Z,98599.88
2019-04-11T01:57:44.751Z,98595.80
2019-04-11T01:59:53.396Z,98604.70
2019-04-11T02:02:03.431Z,98602.06
2019-04-11T02:04:18.074Z,98591.28
2019-04-11T02:06:26.117Z,98594.47
2019-04-11T02:08:33.904Z,98594.25
2019-04-11T02:10:43.338Z,98599.08
2019-04-11T02:12:51.170Z,98595.78
2019-04-11T02:14:59.800Z,98598.95
2019-04-11T02:17:08.538Z,98606.00
2019-04-11T02:19:16.644Z,98609.20
2019-04-11T02:21:25.349Z,98609.77
2019-04-11T02:23:51.147Z,98614.94
2019-04-11T02:26:13.390Z,98599.55
2019-04-11T02:28:22.497Z,98608.13
2019-04-11T02:30:31.333Z,98595.86
2019-04-11T02:32:40.411Z,98599.34
2019-04-11T02:34:50.654Z,98594.15
2019-04-11T02:37:00.081Z,98595.95
2019-04-11T02:39:14.923Z,98592.53
2019-04-11T02:41:21.120Z,98591.63
2019-04-11T02:43:29.552Z,98604.28
2019-04-11T02:45:51.673Z,98595.98
2019-04-11T02:47:50.991Z,98598.98
2019-04-11T02:49:59.176Z,98605.23
2019-04-11T02:52:07.449Z,98610.16
2019-04-11T02:54:18.170Z,98608.11
2019-04-11T02:56:28.705Z,98615.00
2019-04-11T02:58:37.018Z,98601.55
2019-04-11T03:00:46.299Z,98600.31
2019-04-11T03:02:54.293Z,98600.94
2019-04-11T03:05:03.429Z,98600.63
2019-04-11T03:07:12.367Z,98603.02
2019-04-11T03:09:22.155Z,98599.98
2019-04-11T03:11:30.503Z,98602.84
2019-04-11T03:13:38.935Z,98591.21
2019-04-11T03:16:00.541Z,98602.39
2019-04-11T03:18:01.947Z,98614.59
2019-04-11T03:20:17.062Z,98604.86
2019-04-11T03:22:18.231Z,98608.50
2019-04-11T03:24:27.161Z,98607.95
2019-04-11T03:26:37.777Z,98618.01
2019-04-11T03:28:50.189Z,98613.88
2019-04-11T03:31:26.813Z,98616.72
2019-04-11T03:37:53.899Z,98620.92
2019-04-11T03:39:56.863Z,98618.77
2019-04-11T03:42:03.958Z,98626.10
2019-04-11T03:44:04.319Z,98626.84
2019-04-11T03:46:24.972Z,98629.28
2019-04-11T03:48:29.017Z,98623.16
2019-04-11T03:50:30.460Z,98624.70
2019-04-11T03:52:36.706Z,98634.77
2019-04-11T03:54:45.503Z,98633.48
2019-04-11T03:56:54.014Z,98635.77
2019-04-11T03:59:03.812Z,98641.16
2019-04-11T04:01:11.846Z,98640.13
2019-04-11T04:03:20.325Z,98636.95
2019-04-11T04:05:32.403Z,98639.23
2019-04-11T04:07:40.473Z,98639.79
2019-04-11T04:09:49.063Z,98629.47
2019-04-11T04:11:58.987Z,98640.62
2019-04-11T04:14:08.408Z,98646.05
2019-04-11T04:16:40.862Z,98637.02
2019-04-11T04:18:45.820Z,98641.53
2019-04-11T04:21:10.578Z,98639.73
2019-04-11T04:23:20.844Z,98644.59
2019-04-11T04:25:29.122Z,98644.05
2019-04-11T04:27:38.634Z,98648.91
2019-04-11T04:29:51.849Z,98648.48
2019-04-11T04:31:59.368Z,98650.61
2019-04-11T04:34:07.285Z,98655.22
2019-04-11T04:36:17.773Z,98656.16
2019-04-11T04:38:25.215Z,98658.21
2019-04-11T04:40:50.018Z,98651.14
2019-04-11T04:42:50.182Z,98658.34
2019-04-11T04:44:55.805Z,98663.62
2019-04-11T04:47:13.725Z,98667.69
2019-04-11T04:49:15.175Z,98662.73
2019-04-11T04:51:24.334Z,98670.43
2019-04-11T04:53:33.747Z,98677.80
2019-04-11T04:55:43.573Z,98676.98
2019-04-11T04:57:53.283Z,98679.69
2019-04-11T05:00:02.576Z,98680.06
2019-04-11T05:02:12.644Z,98681.61
2019-04-11T05:04:21.061Z,98678.84
2019-04-11T05:06:29.017Z,98691.50
2019-04-11T05:08:36.715Z,98684.30
2019-04-11T05:10:44.957Z,98688.02
2019-04-11T05:12:52.945Z,98697.13
2019-04-11T05:15:01.541Z,98691.80
2019-04-11T05:17:10.744Z,98695.20
2019-04-11T05:19:19.084Z,98699.64
2019-04-11T05:21:27.629Z,98694.85
2019-04-11T05:23:35.479Z,98691.03
2019-04-11T05:25:44.557Z,98694.57
2019-04-11T05:27:52.483Z,98702.99
2019-04-11T05:30:02.834Z,98703.56
2019-04-11T05:32:11.346Z,98699.97
2019-04-11T05:34:20.259Z,98696.34
2019-04-11T05:36:28.372Z,98707.70
2019-04-11T05:38:36.208Z,98701.40
2019-04-11T05:40:44.069Z,98703.11
2019-04-11T05:42:54.204Z,98703.41
2019-04-11T05:45:01.221Z,98702.08
2019-04-11T05:47:09.098Z,98705.86
2019-04-11T05:49:31.209Z,98706.64
2019-04-11T05:51:41.657Z,98704.96
2019-04-11T05:53:48.934Z,98705.81
2019-04-11T05:55:59.427Z,98707.70
2019-04-11T05:58:11.418Z,98710.23
2019-04-11T06:00:25.015Z,98710.66
2019-04-11T06:02:35.305Z,98708.94
2019-04-11T06:04:51.956Z,98707.41
2019-04-11T06:07:03.170Z,98708.58
2019-04-11T06:09:16.778Z,98716.10
2019-04-11T06:11:28.445Z,98717.91
2019-04-11T06:13:38.015Z,98718.08
2019-04-11T06:15:47.425Z,98721.06
2019-04-11T06:17:55.101Z,98720.03
2019-04-11T06:20:25.115Z,98722.81
2019-04-11T06:22:32.499Z,98723.81
2019-04-11T06:24:56.447Z,98721.58
2019-04-11T06:27:18.069Z,98714.09
2019-04-11T06:29:36.957Z,98719.09
2019-04-11T06:31:49.408Z,98716.36
2019-04-11T06:33:59.004Z,98720.52
2019-04-11T06:36:06.623Z,98719.77
2019-04-11T06:38:32.439Z,98722.06
2019-04-11T06:40:54.413Z,98719.31
2019-04-11T06:43:18.307Z,98718.28
2019-04-11T06:45:44.239Z,98724.14
2019-04-11T06:47:56.995Z,98721.74
2019-04-11T06:50:22.999Z,98716.69
2019-04-11T06:52:32.823Z,98714.73
2019-04-11T06:54:52.404Z,98720.24
2019-04-11T06:57:02.013Z,98720.77
2019-04-11T06:59:12.221Z,98716.69
2019-04-11T07:01:22.418Z,98724.55
2019-04-11T07:03:32.491Z,98726.91
2019-04-11T07:05:42.634Z,98727.44
2019-04-11T07:07:52.132Z,98729.87
2019-04-11T07:10:02.106Z,98731.38
2019-04-11T07:12:28.647Z,98729.55
2019-04-11T07:14:55.117Z,98740.80
2019-04-11T07:17:21.133Z,98735.07
2019-04-11T07:19:30.766Z,98738.33
2019-04-11T07:21:39.689Z,98744.77
2019-04-11T07:24:05.447Z,98750.09
2019-04-11T07:26:20.943Z,98744.23
2019-04-11T07:28:33.731Z,98751.72
2019-04-11T07:31:00.447Z,98744.96
2019-04-11T07:33:28.812Z,98755.86
2019-04-11T07:35:55.419Z,98758.28
2019-04-11T07:38:03.234Z,98754.89
2019-04-11T07:40:11.574Z,98758.84
2019-04-11T07:42:26.799Z,98756.27
2019-04-11T07:44:35.409Z,98747.02
2019-04-11T07:47:12.860Z,98741.93
2019-04-11T07:49:10.491Z,98755.39
2019-04-11T07:51:19.878Z,98747.14
2019-04-11T07:53:28.557Z,98751.67
2019-04-11T07:55:38.701Z,98757.40
2019-04-11T07:57:48.974Z,98763.84
2019-04-11T08:00:08.271Z,98755.43
2019-04-11T08:02:24.090Z,98767.38
2019-04-11T08:04:49.544Z,98758.66
2019-04-11T08:07:05.434Z,98757.85
2019-04-11T08:09:26.708Z,98756.46
2019-04-11T08:11:36.444Z,98753.98
2019-04-11T08:14:02.294Z,98753.81
2019-04-11T08:16:28.990Z,98758.50
2019-04-11T08:18:45.438Z,98761.42
2019-04-11T08:21:04.215Z,98767.05
2019-04-11T08:23:12.086Z,98773.13
2019-04-11T08:25:21.634Z,98767.88
2019-04-11T08:27:50.015Z,98790.28
2019-04-11T08:29:51.540Z,98777.23
2019-04-11T08:32:09.506Z,98772.05
2019-04-11T08:34:21.886Z,98776.25
2019-04-11T08:36:29.634Z,98773.17
2019-04-11T08:38:37.377Z,98778.62
2019-04-11T08:41:03.102Z,98780.47
2019-04-11T08:43:12.981Z,98780.64
2019-04-11T08:45:23.742Z,98787.58
2019-04-11T08:47:44.744Z,98782.92
2019-04-11T08:49:45.913Z,98798.55
2019-04-11T08:51:56.092Z,98787.52
2019-04-11T08:54:21.835Z,98780.58
2019-04-11T08:56:29.636Z,98791.25
2019-04-11T08:58:53.851Z,98795.22
2019-04-11T09:01:03.475Z,98777.80
2019-04-11T09:03:20.165Z,98781.91
2019-04-11T09:05:45.688Z,98782.65
2019-04-11T09:07:56.141Z,98771.70
2019-04-11T09:10:24.151Z,98782.96
2019-04-11T09:12:32.135Z,98777.12
2019-04-11T09:14:52.682Z,98787.35
2019-04-11T09:17:05.910Z,98790.69
2019-04-11T09:19:25.070Z,98793.16
2019-04-11T09:21:51.026Z,98786.86
2019-04-11T09:23:59.667Z,98786.46
2019-04-11T09:26:09.831Z,98786.30
2019-04-11T09:28:19.722Z,98789.27
2019-04-11T09:30:45.621Z,98783.72
2019-04-11T09:33:10.952Z,98783.13
2019-04-11T09:35:33.442Z,98793.80
2019-04-11T09:37:44.228Z,98788.14
2019-04-11T09:39:55.171Z,98782.00
2019-04-11T09:42:22.716Z,98799.40
2019-04-11T09:44:46.726Z,98782.97
2019-04-11T09:47:09.513Z,98785.98
2019-04-11T09:49:18.388Z,98789.30
2019-04-11T09:51:29.467Z,98788.19
2019-04-11T09:53:41.064Z,98784.42
2019-04-11T09:56:02.659Z,98787.43
2019-04-11T09:58:25.294Z,98791.75
2019-04-11T10:00:51.163Z,98790.81
2019-04-11T10:03:03.336Z,98795.67
2019-04-11T10:05:13.767Z,98796.99
2019-04-11T10:07:23.760Z,98801.85
2019-04-11T10:09:48.491Z,98803.45
2019-04-11T10:12:15.813Z,98812.14
2019-04-11T10:14:24.031Z,98800.84
2019-04-11T10:16:34.148Z,98790.72
2019-04-11T10:18:47.798Z,98802.14
2019-04-11T10:20:57.076Z,98794.63
2019-04-11T10:23:10.644Z,98795.55
2019-04-11T10:25:21.243Z,98793.99
2019-04-11T10:27:28.955Z,98793.16
2019-04-11T10:29:36.581Z,98804.37
2019-04-11T10:31:48.860Z,98790.67
2019-04-11T10:33:59.418Z,98802.64
2019-04-11T10:36:21.444Z,98800.20
2019-04-11T10:38:29.253Z,98796.09
2019-04-11T10:40:48.232Z,98802.23
2019-04-11T10:42:56.069Z,98807.59
2019-04-11T10:45:25.315Z,98808.29
2019-04-11T10:47:34.629Z,98810.78
2019-04-11T10:49:42.208Z,98806.31
2019-04-11T10:51:56.064Z,98807.39
2019-04-11T10:54:05.841Z,98806.36
2019-04-11T10:56:19.148Z,98807.76
2019-04-11T10:58:28.877Z,98813.69
2019-04-11T11:00:39.641Z,98820.59
2019-04-11T11:02:53.650Z,98815.91
2019-04-11T11:05:01.582Z,98818.88
2019-04-11T11:07:11.466Z,98817.37
2019-04-11T11:09:30.287Z,98814.87
2019-04-11T11:11:42.310Z,98819.42
2019-04-11T11:13:52.111Z,98820.83
2019-04-11T11:16:00.300Z,98813.37
2019-04-11T11:19:13.951Z,98824.17
2019-04-11T11:20:41.477Z,98816.88
2019-04-11T11:22:49.102Z,98814.69
2019-04-11T11:25:11.597Z,98820.53
2019-04-11T11:27:18.546Z,98819.60
2019-04-11T11:29:29.071Z,98824.80
2019-04-11T11:31:36.561Z,98819.84
2019-04-11T11:33:45.309Z,98820.16
2019-04-11T11:36:10.739Z,98820.09
2019-04-11T11:38:19.901Z,98820.75
2019-04-11T11:40:44.700Z,98824.16
2019-04-11T11:43:09.147Z,98836.40
2019-04-11T11:45:25.621Z,98826.58
2019-04-11T11:47:46.978Z,98825.71
2019-04-11T11:50:00.518Z,98828.29
2019-04-11T11:52:07.535Z,98818.63
2019-04-11T11:54:19.919Z,98824.12
2019-04-11T11:56:27.841Z,98821.48
2019-04-11T11:58:47.884Z,98818.55
2019-04-11T12:00:57.236Z,98818.70
2019-04-11T12:03:12.889Z,98819.63
2019-04-11T12:05:22.433Z,98820.33
2019-04-11T12:07:39.340Z,98816.62
2019-04-11T12:10:04.983Z,98809.27
2019-04-11T12:12:31.534Z,98816.10
2019-04-11T12:14:57.582Z,98823.12
2019-04-11T12:17:16.446Z,98813.92
2019-04-11T12:19:26.870Z,98805.63
2019-04-11T12:21:36.747Z,98814.54
2019-04-11T12:24:03.784Z,98813.92
2019-04-11T12:26:07.540Z,98808.92
2019-04-11T12:28:27.681Z,98816.36
2019-04-11T12:30:37.504Z,98809.86
2019-04-11T12:32:49.740Z,98806.89
2019-04-11T12:35:17.830Z,98803.13
2019-04-11T12:37:29.854Z,98808.36
2019-04-11T12:39:45.261Z,98807.52
2019-04-11T12:41:54.776Z,98806.20
2019-04-11T12:44:05.303Z,98807.69
2019-04-11T12:46:30.836Z,98800.53
2019-04-11T12:48:39.998Z,98807.48
2019-04-11T12:50:57.450Z,98815.84
2019-04-11T12:53:07.991Z,98808.05
2019-04-11T12:55:17.394Z,98804.23
2019-04-11T12:57:42.994Z,98806.78
2019-04-11T12:59:52.494Z,98814.35
2019-04-11T13:02:10.962Z,98807.16
2019-04-11T13:04:23.632Z,98808.47
2019-04-11T13:06:49.072Z,98798.20
2019-04-11T13:09:14.541Z,98797.34
2019-04-11T13:11:23.940Z,98801.11
2019-04-11T13:13:42.138Z,98797.88
2019-04-11T13:15:54.554Z,98803.86
2019-04-11T13:18:19.890Z,98802.33
2019-04-11T13:20:47.000Z,98803.58
2019-04-11T13:23:03.770Z,98798.72
2019-04-11T13:25:25.176Z,98800.03
2019-04-11T13:27:34.645Z,98810.10
2019-04-11T13:29:42.331Z,98801.59
2019-04-11T13:31:52.645Z,98802.00
2019-04-11T13:34:03.795Z,98798.81
2019-04-11T13:36:29.762Z,98800.31
2019-04-11T13:38:38.310Z,98801.94
2019-04-11T13:40:46.326Z,98795.00
2019-04-11T13:43:12.075Z,98785.66
2019-04-11T13:45:19.958Z,98794.16
2019-04-11T13:47:39.530Z,98794.95
2019-04-11T13:49:49.195Z,98797.45
2019-04-11T13:52:01.359Z,98791.45
2019-04-11T13:54:26.903Z,98791.73
2019-04-11T13:56:36.361Z,98794.30
2019-04-11T13:59:02.019Z,98791.28
2019-04-11T14:01:10.349Z,98789.08
2019-04-11T14:03:20.844Z,98791.69
2019-04-11T14:05:30.261Z,98794.96
2019-04-11T14:07:38.415Z,98787.92
2019-04-11T14:09:50.547Z,98780.89
2019-04-11T14:11:58.397Z,98777.31
2019-04-11T14:14:12.064Z,98780.36
2019-04-11T14:16:21.589Z,98779.47
2019-04-11T14:18:30.996Z,98777.88
2019-04-11T14:20:44.561Z,98775.72
2019-04-11T14:23:01.371Z,98777.73
2019-04-11T14:25:14.964Z,98780.45
2019-04-11T14:27:29.023Z,98781.55
2019-04-11T14:29:41.193Z,98776.75
2019-04-11T14:31:54.598Z,98775.05
2019-04-11T14:34:20.367Z,98779.67
2019-04-11T14:36:47.038Z,98781.13
2019-04-11T14:38:56.453Z,98772.51
2019-04-11T14:41:12.436Z,98779.77
2019-04-11T14:43:22.682Z,98775.97
2019-04-11T14:45:42.568Z,98776.92
2019-04-11T14:48:10.208Z,98780.09
2019-04-11T14:50:18.203Z,98766.92
2019-04-11T14:52:31.656Z,98763.98
2019-04-11T14:54:40.994Z,98768.97
2019-04-11T14:57:00.560Z,98765.58
2019-04-11T14:59:13.338Z,98763.09
2019-04-11T15:01:23.726Z,98758.55
2019-04-11T15:03:43.138Z,98758.12
2019-04-11T15:06:02.613Z,98757.88
2019-04-11T15:08:12.334Z,98755.80
2019-04-11T15:10:40.140Z,98757.56
2019-04-11T15:12:48.814Z,98762.61
2019-04-11T15:14:56.339Z,98752.06
2019-04-11T15:17:03.965Z,98751.19
2019-04-11T15:19:12.329Z,98756.56
2019-04-11T15:21:25.780Z,98753.23
2019-04-11T15:23:37.522Z,98759.70
2019-04-11T15:25:44.425Z,98759.50
2019-04-11T15:27:54.636Z,98761.70
2019-04-11T15:30:04.138Z,98760.27
2019-04-11T15:32:16.386Z,98761.05
2019-04-11T15:34:28.699Z,98762.14
2019-04-11T15:36:39.849Z,98756.89
2019-04-11T15:39:05.602Z,98759.05
2019-04-11T15:41:13.898Z,98757.95
2019-04-11T15:43:42.266Z,98760.54
2019-04-11T15:45:49.633Z,98759.05
2019-04-11T15:48:20.140Z,98759.58
2019-04-11T15:50:39.768Z,98760.23
2019-04-11T15:52:49.185Z,98757.09
2019-04-11T15:55:02.439Z,98757.64
2019-04-11T15:57:26.734Z,98760.64
2019-04-11T15:59:36.678Z,98763.06
2019-04-11T16:02:04.303Z,98766.11
2019-04-11T16:04:29.910Z,98762.34
2019-04-11T16:06:55.323Z,98770.61
2019-04-11T16:09:03.993Z,98765.57
2019-04-11T16:11:12.386Z,98763.09
2019-04-11T16:13:22.504Z,98767.34
2019-04-11T16:15:34.848Z,98768.25
2019-04-11T16:17:45.206Z,98767.28
2019-04-11T16:19:55.705Z,98767.69
2019-04-11T16:22:24.722Z,98769.39
2019-04-11T16:24:33.252Z,98768.39
2019-04-11T16:26:48.593Z,98771.96
2019-04-11T16:28:59.202Z,98774.95
2019-04-11T16:31:09.461Z,98766.03
2019-04-11T16:33:25.053Z,98771.00
2019-04-11T16:35:40.394Z,98774.89
2019-04-11T16:37:52.512Z,98769.02
2019-04-11T16:40:18.109Z,98777.98
2019-04-11T16:42:27.802Z,98772.11
2019-04-11T16:44:47.420Z,98780.72
2019-04-11T16:47:12.811Z,98777.38
2019-04-11T16:49:20.730Z,98776.23
2019-04-11T16:51:31.075Z,98772.24
2019-04-11T16:53:38.169Z,98781.47
2019-04-11T16:55:45.990Z,98779.05
2019-04-11T16:57:54.021Z,98786.63
2019-04-11T17:00:01.815Z,98785.23
2019-04-11T17:02:10.787Z,98791.52
2019-04-11T17:04:18.569Z,98789.77
2019-04-11T17:06:41.177Z,98797.30
2019-04-11T17:08:51.689Z,98791.34
2019-04-11T17:11:04.179Z,98790.44
2019-04-11T17:13:11.965Z,98791.34
2019-04-11T17:15:20.889Z,98793.83
2019-04-11T17:17:30.612Z,98799.30
2019-04-11T17:19:39.310Z,98799.58
2019-04-11T17:21:48.424Z,98802.84
2019-04-11T17:23:56.646Z,98796.11
2019-04-11T17:26:06.271Z,98807.45
2019-04-11T17:28:14.282Z,98803.95
2019-04-11T17:30:24.531Z,98808.23
2019-04-11T17:32:31.644Z,98811.16
2019-04-11T17:34:39.936Z,98815.75
2019-04-11T17:36:47.789Z,98813.58
2019-04-11T17:38:55.584Z,98812.77
2019-04-11T17:41:03.310Z,98815.27
2019-04-11T17:43:13.448Z,98824.07
2019-04-11T17:45:20.633Z,98823.91
2019-04-11T17:47:28.551Z,98828.45
2019-04-11T17:49:36.385Z,98835.13
2019-04-11T17:51:55.357Z,98841.19
2019-04-11T17:53:55.890Z,98846.05
2019-04-11T17:56:03.682Z,98846.19
2019-04-11T17:58:11.477Z,98848.19
2019-04-11T18:00:29.937Z,98852.35
2019-04-11T18:02:39.008Z,98855.27
2019-04-11T18:04:48.179Z,98849.20
2019-04-11T18:06:56.096Z,98856.72
2019-04-11T18:09:06.100Z,98861.02
2019-04-11T18:11:14.224Z,98861.02
2019-04-11T18:13:22.032Z,98865.01
2019-04-11T18:15:31.267Z,98866.09
2019-04-11T18:17:40.763Z,98866.58
2019-04-11T18:19:48.575Z,98875.55
2019-04-11T18:22:07.454Z,98876.41
2019-04-11T18:24:06.467Z,98882.28
2019-04-11T18:26:14.650Z,98884.66
2019-04-11T18:28:22.539Z,98885.38
2019-04-11T18:30:30.315Z,98888.41
2019-04-11T18:32:39.555Z,98889.75
2019-04-11T18:34:47.255Z,98887.66
2019-04-11T18:36:55.026Z,98893.86
2019-04-11T18:39:05.963Z,98891.05
2019-04-11T18:41:14.011Z,98901.17
2019-04-11T18:43:25.441Z,98894.30
2019-04-11T18:45:34.089Z,98899.38
2019-04-11T18:47:41.776Z,98900.52
2019-04-11T18:49:50.949Z,98901.45
2019-04-11T18:51:59.147Z,98899.73
2019-04-11T18:54:07.837Z,98902.39
2019-04-11T18:56:15.851Z,98902.87
2019-04-11T18:58:23.590Z,98908.29
2019-04-11T19:00:31.542Z,98902.77
2019-04-11T19:02:40.204Z,98910.36
2019-04-11T19:04:48.478Z,98910.19
2019-04-11T19:06:56.260Z,98912.01
2019-04-11T19:09:06.192Z,98908.63
2019-04-11T19:11:15.733Z,98912.94
2019-04-11T19:13:24.135Z,98910.33
2019-04-11T19:15:31.998Z,98914.83
2019-04-11T19:17:39.896Z,98912.73
2019-04-11T19:19:48.931Z,98924.94
2019-04-11T19:21:57.146Z,98914.81
2019-04-11T19:24:09.057Z,98918.39
2019-04-11T19:26:15.313Z,98921.20
2019-04-11T19:28:25.207Z,98921.45
2019-04-11T19:30:32.708Z,98915.81
2019-04-11T19:32:40.669Z,98915.39
2019-04-11T19:34:48.346Z,98915.56
2019-04-11T19:36:56.222Z,98917.38
2019-04-11T19:39:05.951Z,98925.73
2019-04-11T19:41:17.150Z,98927.64
2019-04-11T19:43:24.302Z,98924.08
2019-04-11T19:45:32.076Z,98931.36
2019-04-11T19:47:39.778Z,98933.29
2019-04-11T19:49:47.537Z,98922.05
2019-04-11T19:51:55.465Z,98923.89
2019-04-11T19:54:03.911Z,98930.71
2019-04-11T19:56:16.348Z,98928.84
2019-04-11T19:58:25.756Z,98937.94
2019-04-11T20:00:33.982Z,98930.33
2019-04-11T20:02:41.885Z,98929.11
2019-04-11T20:04:49.769Z,98942.38
2019-04-11T20:06:57.586Z,98933.88
2019-04-11T20:09:08.671Z,98938.70
2019-04-11T20:11:18.124Z,98929.88
2019-04-11T20:13:25.990Z,98935.41
2019-04-11T20:15:37.183Z,98939.27
2019-04-11T20:17:44.936Z,98928.45
2019-04-11T20:20:01.150Z,98929.06
2019-04-11T20:22:02.236Z,98930.20
2019-04-11T20:24:14.112Z,98931.95
2019-04-11T20:26:20.949Z,98939.33
2019-04-11T20:28:29.050Z,98934.21
2019-04-11T20:30:36.933Z,98939.34
2019-04-11T20:32:44.715Z,98941.17
2019-04-11T20:34:53.885Z,98945.97
2019-04-11T20:37:02.293Z,98949.41
2019-04-11T20:39:15.031Z,98950.89
2019-04-11T20:41:23.287Z,98946.67
2019-04-11T20:43:32.445Z,98953.27
2019-04-11T20:45:42.060Z,98953.16
2019-04-11T20:47:51.035Z,98951.09
2019-04-11T20:49:58.716Z,98949.06
2019-04-11T20:52:06.379Z,98948.52
2019-04-11T20:54:14.153Z,98955.20
2019-04-11T20:56:24.302Z,98952.06
2019-04-11T20:58:32.493Z,98950.56
2019-04-11T21:00:50.319Z,98955.77
2019-04-11T21:02:50.337Z,98945.91
2019-04-11T21:04:58.915Z,98964.20
2019-04-11T21:07:07.629Z,98954.70
2019-04-11T21:09:15.478Z,98955.05
2019-04-11T21:11:24.076Z,98961.17
2019-04-11T21:13:32.746Z,98959.73
2019-04-11T21:15:40.524Z,98966.73
2019-04-11T21:17:48.376Z,98964.20
2019-04-11T21:19:56.078Z,98965.40
2019-04-11T21:22:03.849Z,98960.50
2019-04-11T21:24:11.722Z,98963.56
2019-04-11T21:26:19.602Z,98963.08
2019-04-11T21:28:29.809Z,98961.00
2019-04-11T21:30:36.868Z,98963.36
2019-04-11T21:32:44.741Z,98961.95
2019-04-11T21:34:52.611Z,98977.43
2019-04-11T21:37:02.535Z,98972.77
2019-04-11T21:39:09.885Z,98968.45
2019-04-11T21:41:17.758Z,98975.78
2019-04-11T21:43:25.576Z,98964.86
2019-04-11T21:45:35.855Z,98971.51
2019-04-11T21:47:44.873Z,98974.23
2019-04-11T21:49:52.718Z,98974.06
2019-04-11T21:52:03.065Z,98974.80
2019-04-11T21:54:14.650Z,98972.08
2019-04-11T21:56:20.484Z,98975.63
2019-04-11T21:58:28.180Z,98973.07
2019-04-11T22:00:41.062Z,98977.00
2019-04-11T22:02:51.914Z,98977.15
2019-04-11T22:05:00.103Z,98978.82
2019-04-11T22:07:07.964Z,98970.28
2019-04-11T22:09:16.236Z,98981.05
2019-04-11T22:11:24.045Z,98981.31
2019-04-11T22:13:31.898Z,98977.59
2019-04-11T22:15:42.123Z,98981.54
2019-04-11T22:17:49.173Z,98972.81
2019-04-11T22:19:56.981Z,98981.16
2019-04-11T22:22:04.797Z,98976.34
2019-04-11T22:24:12.502Z,98978.08
2019-04-11T22:26:20.185Z,98978.72
2019-04-11T22:28:27.859Z,98970.92
2019-04-11T22:30:35.588Z,98969.40
2019-04-11T22:32:45.008Z,98972.02
2019-04-11T22:34:52.850Z,98969.20
2019-04-11T22:37:00.690Z,98965.81
2019-04-11T22:39:10.685Z,98982.45
2019-04-11T22:41:19.626Z,98974.56
2019-04-11T22:43:27.336Z,98970.98
2019-04-11T22:45:37.820Z,98968.66
2019-04-11T22:47:45.876Z,98983.97
2019-04-11T22:49:53.891Z,98972.64
2019-04-11T22:52:01.755Z,98971.08
2019-04-11T22:54:12.922Z,98967.52
2019-04-11T22:56:19.035Z,98965.32
2019-04-11T22:58:26.818Z,98969.78
2019-04-11T23:00:34.665Z,98970.76
2019-04-11T23:02:48.299Z,98961.52
2019-04-11T23:05:14.947Z,98978.45
2019-04-11T23:07:40.351Z,98964.05
2019-04-11T23:10:07.631Z,98963.20
2019-04-11T23:12:32.532Z,98963.66
2019-04-11T23:14:57.525Z,98970.92
2019-04-11T23:17:23.818Z,98969.54
2019-04-11T23:19:31.608Z,98989.88
2019-04-11T23:21:39.532Z,98973.06
2019-04-11T23:23:47.236Z,98970.38
2019-04-11T23:25:56.091Z,98958.48
2019-04-11T23:28:03.895Z,98960.62
2019-04-11T23:30:15.917Z,98971.44
2019-04-11T23:32:23.276Z,98979.05
2019-04-11T23:34:31.032Z,98973.88
2019-04-11T23:36:38.830Z,98974.81
2019-04-11T23:38:46.498Z,98973.29
2019-04-11T23:40:54.242Z,98970.66
2019-04-11T23:43:02.044Z,98968.72
2019-04-11T23:45:09.887Z,98965.86
2019-04-11T23:47:20.130Z,98970.25
2019-04-11T23:49:28.279Z,98972.84
2019-04-11T23:51:35.962Z,98971.64
2019-04-11T23:53:43.733Z,98965.73
2019-04-11T23:55:52.411Z,98978.06
2019-04-11T23:58:01.696Z,98970.86
